createdAt,value
2018-09-25T00:02:10.893Z,7.80
2018-09-25T00:07:18.814Z,7.70
2018-09-25T00:12:26.814Z,7.70
2018-09-25T00:17:34.774Z,7.60
2018-09-25T00:22:42.634Z,7.50
2018-09-25T00:27:50.554Z,7.50
2018-09-25T00:32:58.460Z,7.50
2018-09-25T00:38:06.369Z,7.40
2018-09-25T00:43:14.315Z,7.30
2018-09-25T00:48:22.177Z,7.40
2018-09-25T00:53:30.533Z,7.40
2018-09-25T00:58:38.480Z,7.30
2018-09-25T01:03:46.426Z,7.20
2018-09-25T01:08:54.398Z,7.10
2018-09-25T01:14:02.306Z,7.10
2018-09-25T01:19:10.210Z,7.10
2018-09-25T01:24:18.178Z,7.00
2018-09-25T01:29:26.138Z,7.00
2018-09-25T01:34:34.077Z,6.90
2018-09-25T01:39:42.038Z,6.90
2018-09-25T01:44:49.949Z,6.90
2018-09-25T01:49:57.909Z,6.80
2018-09-25T01:55:05.835Z,6.70
2018-09-25T02:00:13.759Z,6.60
2018-09-25T02:05:21.677Z,6.60
2018-09-25T02:10:29.558Z,6.50
2018-09-25T02:15:37.395Z,6.40
2018-09-25T02:20:45.401Z,6.40
2018-09-25T02:25:53.342Z,6.40
2018-09-25T02:31:01.305Z,6.20
2018-09-25T02:36:09.196Z,6.20
2018-09-25T02:41:17.194Z,6.30
2018-09-25T02:46:25.082Z,6.20
2018-09-25T02:51:33.003Z,6.20
2018-09-25T02:56:40.942Z,6.10
2018-09-25T03:01:48.777Z,6.10
2018-09-25T03:06:56.668Z,6.10
2018-09-25T03:12:04.582Z,6.10
2018-09-25T03:17:19.290Z,6.00
2018-09-25T03:22:27.248Z,5.90
2018-09-25T03:27:35.193Z,5.90
2018-09-25T03:32:43.018Z,5.90
2018-09-25T03:37:57.710Z,5.80
2018-09-25T03:43:05.622Z,5.70
2018-09-25T03:48:13.506Z,5.60
2018-09-25T03:53:21.487Z,5.50
2018-09-25T03:58:29.454Z,5.40
2018-09-25T04:03:37.404Z,5.40
2018-09-25T04:08:45.350Z,5.30
2018-09-25T04:13:53.244Z,5.30
2018-09-25T04:19:01.174Z,5.20
2018-09-25T04:24:09.092Z,5.10
2018-09-25T04:29:17.021Z,5.10
2018-09-25T04:34:24.989Z,5.00
2018-09-25T04:39:32.956Z,5.00
2018-09-25T04:44:40.866Z,4.90
2018-09-25T04:49:48.773Z,4.80
2018-09-25T04:54:56.734Z,4.90
2018-09-25T05:00:04.644Z,4.80
2018-09-25T05:05:12.657Z,4.80
2018-09-25T05:10:20.641Z,4.80
2018-09-25T05:15:28.541Z,4.70
2018-09-25T05:20:36.430Z,4.70
2018-09-25T05:25:44.354Z,4.70
2018-09-25T05:30:52.266Z,4.70
2018-09-25T05:36:00.156Z,4.60
2018-09-25T05:41:08.122Z,4.70
2018-09-25T05:46:15.978Z,4.70
2018-09-25T05:51:23.892Z,4.90
2018-09-25T05:56:31.773Z,5.10
2018-09-25T06:01:39.647Z,5.70
2018-09-25T06:06:47.531Z,6.10
2018-09-25T06:11:55.386Z,6.40
2018-09-25T06:17:03.259Z,6.80
2018-09-25T06:22:11.234Z,7.20
2018-09-25T06:27:19.202Z,7.60
2018-09-25T06:32:27.162Z,8.00
2018-09-25T06:37:35.049Z,8.30
2018-09-25T06:42:42.989Z,8.80
2018-09-25T06:47:50.901Z,9.30
2018-09-25T06:52:58.858Z,9.80
2018-09-25T06:58:06.726Z,10.30
2018-09-25T07:03:14.658Z,10.80
2018-09-25T07:08:22.649Z,11.30
2018-09-25T07:13:30.662Z,11.90
2018-09-25T07:18:38.630Z,12.20
2018-09-25T07:23:46.730Z,12.60
2018-09-25T07:28:54.746Z,13.10
2018-09-25T07:34:02.641Z,13.70
2018-09-25T07:39:13.292Z,14.10
2018-09-25T07:44:21.165Z,14.70
2018-09-25T07:49:29.107Z,14.90
2018-09-25T07:54:37.010Z,15.40
2018-09-25T07:59:44.902Z,15.70
2018-09-25T08:04:52.917Z,16.60
2018-09-25T08:10:01.861Z,15.80
2018-09-25T08:15:09.783Z,16.50
2018-09-25T08:20:18.801Z,16.30
2018-09-25T08:25:26.717Z,17.10
2018-09-25T08:30:34.673Z,17.80
2018-09-25T08:35:42.575Z,17.30
2018-09-25T08:40:50.635Z,17.40
2018-09-25T08:45:58.684Z,17.80
2018-09-25T08:51:06.430Z,17.10
2018-09-25T08:56:14.350Z,17.40
2018-09-25T09:01:22.282Z,17.80
2018-09-25T09:06:30.197Z,17.20
2018-09-25T09:11:38.094Z,18.40
2018-09-25T09:16:45.974Z,18.10
2018-09-25T09:21:53.959Z,19.20
2018-09-25T09:27:01.818Z,18.10
2018-09-25T09:32:09.717Z,18.30
2018-09-25T09:37:17.550Z,18.80
2018-09-25T09:42:25.514Z,19.10
2018-09-25T09:47:33.501Z,18.70
2018-09-25T09:52:41.457Z,19.90
2018-09-25T09:57:49.350Z,19.50
2018-09-25T10:02:57.239Z,18.50
2018-09-25T10:08:05.154Z,17.90
2018-09-25T10:13:13.188Z,16.30
2018-09-25T10:18:21.130Z,16.70
2018-09-25T10:23:29.114Z,16.20
2018-09-25T10:28:36.969Z,15.40
2018-09-25T10:33:44.950Z,15.80
2018-09-25T10:38:52.875Z,16.00
2018-09-25T10:44:00.786Z,16.10
2018-09-25T10:49:08.706Z,15.20
2018-09-25T10:54:16.662Z,15.60
2018-09-25T10:59:24.526Z,15.60
2018-09-25T11:04:32.465Z,15.50
2018-09-25T11:09:40.373Z,15.80
2018-09-25T11:14:48.260Z,15.30
2018-09-25T11:19:56.049Z,15.30
2018-09-25T11:25:04.036Z,15.60
2018-09-25T11:30:11.898Z,15.20
2018-09-25T11:35:19.827Z,15.10
2018-09-25T11:40:27.645Z,15.20
2018-09-25T11:45:35.632Z,15.30
2018-09-25T11:50:43.542Z,15.10
2018-09-25T11:55:51.382Z,15.20
2018-09-25T12:00:59.245Z,15.20
2018-09-25T12:06:07.130Z,15.40
2018-09-25T12:11:15.066Z,15.50
2018-09-25T12:16:23.006Z,15.50
2018-09-25T12:21:37.799Z,15.40
2018-09-25T12:26:45.780Z,15.60
2018-09-25T12:31:53.637Z,15.90
2018-09-25T12:37:01.590Z,15.50
2018-09-25T12:42:09.526Z,15.50
2018-09-25T12:47:17.413Z,15.60
2018-09-25T12:52:25.352Z,15.90
2018-09-25T12:57:33.363Z,15.90
2018-09-25T13:02:41.242Z,15.70
2018-09-25T13:07:49.199Z,15.80
2018-09-25T13:12:57.250Z,15.60
2018-09-25T13:18:05.102Z,15.70
2018-09-25T13:23:12.989Z,15.50
2018-09-25T13:28:20.888Z,15.40
2018-09-25T13:33:28.950Z,15.70
2018-09-25T13:38:36.774Z,15.70
2018-09-25T13:43:44.662Z,15.60
2018-09-25T13:48:52.729Z,15.90
2018-09-25T13:54:00.716Z,15.80
2018-09-25T13:59:08.622Z,15.90
2018-09-25T14:04:16.618Z,15.40
2018-09-25T14:09:24.579Z,15.60
2018-09-25T14:14:32.625Z,15.60
2018-09-25T14:19:40.635Z,15.70
2018-09-25T14:24:48.571Z,15.60
2018-09-25T14:29:56.487Z,15.90
2018-09-25T14:35:04.409Z,15.90
2018-09-25T14:40:12.325Z,16.00
2018-09-25T14:45:20.214Z,15.80
2018-09-25T14:50:28.122Z,15.70
2018-09-25T14:55:36.071Z,15.60
2018-09-25T15:00:43.973Z,15.40
2018-09-25T15:05:51.914Z,15.30
2018-09-25T15:10:59.749Z,15.30
2018-09-25T15:16:07.750Z,15.40
2018-09-25T15:21:15.725Z,15.40
2018-09-25T15:26:23.518Z,15.50
2018-09-25T15:31:31.522Z,15.30
2018-09-25T15:36:39.459Z,15.30
2018-09-25T15:41:47.526Z,15.50
2018-09-25T15:46:55.362Z,15.30
2018-09-25T15:52:03.294Z,15.30
2018-09-25T15:57:11.209Z,15.30
2018-09-25T16:02:19.102Z,15.30
2018-09-25T16:07:27.129Z,15.10
2018-09-25T16:12:35.026Z,15.00
2018-09-25T16:17:42.972Z,15.00
2018-09-25T16:22:50.901Z,15.00
2018-09-25T16:27:58.789Z,14.90
2018-09-25T16:33:06.670Z,14.90
2018-09-25T16:38:14.558Z,14.80
2018-09-25T16:43:22.518Z,14.70
2018-09-25T16:48:30.410Z,14.50
2018-09-25T16:53:38.313Z,14.50
2018-09-25T16:58:46.229Z,14.40
2018-09-25T17:03:54.189Z,14.40
2018-09-25T17:09:02.013Z,14.30
2018-09-25T17:14:10.000Z,14.20
2018-09-25T17:19:17.934Z,14.00
2018-09-25T17:24:25.840Z,13.90
2018-09-25T17:29:33.797Z,13.60
2018-09-25T17:34:41.747Z,13.40
2018-09-25T17:39:50.009Z,13.10
2018-09-25T17:44:58.066Z,12.90
2018-09-25T17:50:06.054Z,12.70
2018-09-25T17:55:14.092Z,12.50
2018-09-25T18:00:22.086Z,12.40
2018-09-25T18:05:30.041Z,12.10
2018-09-25T18:10:38.083Z,12.10
2018-09-25T18:15:46.078Z,11.80
2018-09-25T18:20:54.091Z,11.70
2018-09-25T18:26:01.941Z,11.60
2018-09-25T18:31:09.849Z,11.50
2018-09-25T18:36:17.765Z,11.40
2018-09-25T18:41:32.670Z,11.30
2018-09-25T18:46:40.537Z,11.10
2018-09-25T18:51:48.369Z,11.00
2018-09-25T18:56:56.285Z,10.90
2018-09-25T19:02:04.197Z,10.80
2018-09-25T19:07:12.134Z,10.70
2018-09-25T19:12:19.976Z,10.50
2018-09-25T19:17:27.917Z,10.40
2018-09-25T19:22:35.773Z,10.40
2018-09-25T19:27:43.780Z,10.40
2018-09-25T19:32:51.637Z,10.40
2018-09-25T19:37:59.554Z,10.40
2018-09-25T19:43:07.461Z,10.20
2018-09-25T19:48:15.298Z,10.10
2018-09-25T19:53:23.174Z,9.90
2018-09-25T19:58:32.231Z,9.80
2018-09-25T20:03:40.166Z,9.70
2018-09-25T20:08:48.050Z,9.60
2018-09-25T20:13:56.006Z,9.50
2018-09-25T20:19:03.870Z,9.40
2018-09-25T20:24:11.733Z,9.20
2018-09-25T20:29:19.730Z,9.30
2018-09-25T20:34:27.557Z,9.10
2018-09-25T20:39:35.469Z,8.90
2018-09-25T20:44:43.358Z,8.70
2018-09-25T20:49:51.172Z,8.80
2018-09-25T20:54:59.062Z,8.70
2018-09-25T21:00:07.002Z,8.50
2018-09-25T21:05:14.858Z,8.40
2018-09-25T21:10:22.822Z,8.30
2018-09-25T21:15:30.865Z,8.20
2018-09-25T21:20:38.830Z,8.00
2018-09-25T21:25:46.678Z,8.10
2018-09-25T21:30:54.522Z,8.10
2018-09-25T21:36:02.549Z,7.90
2018-09-25T21:41:10.589Z,7.90
2018-09-25T21:46:18.605Z,7.90
2018-09-25T21:51:26.901Z,7.80
2018-09-25T21:56:34.529Z,7.70
2018-09-25T22:01:42.465Z,7.50
2018-09-25T22:06:50.329Z,7.50
2018-09-25T22:11:58.311Z,7.50
2018-09-25T22:17:06.246Z,7.50
2018-09-25T22:22:14.315Z,7.40
2018-09-25T22:27:22.273Z,7.40
2018-09-25T22:32:30.239Z,7.30
2018-09-25T22:37:38.110Z,7.00
2018-09-25T22:42:46.035Z,7.00
2018-09-25T22:47:54.099Z,7.00
2018-09-25T22:53:01.982Z,7.00
2018-09-25T22:58:09.895Z,6.80
2018-09-25T23:03:17.756Z,6.80
2018-09-25T23:08:25.738Z,6.90
2018-09-25T23:13:33.677Z,6.70
2018-09-25T23:18:41.618Z,6.40
2018-09-25T23:23:49.614Z,6.40
2018-09-25T23:28:57.585Z,6.30
2018-09-25T23:34:05.474Z,6.20
2018-09-25T23:39:12.510Z,6.10
2018-09-25T23:44:23.400Z,6.20
2018-09-25T23:49:36.153Z,6.20
2018-09-25T23:54:43.042Z,6.10
2018-09-25T23:59:56.300Z,6.00
